sensor_id;sensor_type;location;lat;lon;timestamp;pressure;altitude;pressure_sealevel;temperature;humidity
5126;BME280;63008;53.112;8.896;2022-12-07T00:01:47;101312.19;;;4.77;94.08
5126;BME280;63008;53.112;8.896;2022-12-07T00:03:50;101318.19;;;4.74;94.24
5126;BME280;63008;53.112;8.896;2022-12-07T00:05:51;101316.28;;;4.75;94.13
5126;BME280;63008;53.112;8.896;2022-12-07T00:07:52;101315.22;;;4.71;94.08
5126;BME280;63008;53.112;8.896;2022-12-07T00:09:53;101313.91;;;4.63;94.10
5126;BME280;63008;53.112;8.896;2022-12-07T00:11:54;101304.97;;;4.58;94.11
5126;BME280;63008;53.112;8.896;2022-12-07T00:13:58;101303.38;;;4.52;94.18
5126;BME280;63008;53.112;8.896;2022-12-07T00:16:03;101303.13;;;4.53;94.33
5126;BME280;63008;53.112;8.896;2022-12-07T00:18:04;101310.72;;;4.51;94.29
5126;BME280;63008;53.112;8.896;2022-12-07T00:20:06;101301.78;;;4.46;94.12
5126;BME280;63008;53.112;8.896;2022-12-07T00:22:07;101296.41;;;4.41;94.30
5126;BME280;63008;53.112;8.896;2022-12-07T00:24:09;101301.03;;;4.35;94.19
5126;BME280;63008;53.112;8.896;2022-12-07T00:26:16;101292.59;;;4.37;93.91
5126;BME280;63008;53.112;8.896;2022-12-07T00:28:17;101299.94;;;4.36;93.54
5126;BME280;63008;53.112;8.896;2022-12-07T00:30:18;101310.78;;;4.41;93.29
5126;BME280;63008;53.112;8.896;2022-12-07T00:32:19;101306.47;;;4.35;93.18
5126;BME280;63008;53.112;8.896;2022-12-07T00:34:21;101307.78;;;4.38;93.47
5126;BME280;63008;53.112;8.896;2022-12-07T00:36:23;101317.56;;;4.39;93.12
5126;BME280;63008;53.112;8.896;2022-12-07T00:38:24;101306.69;;;4.44;92.69
5126;BME280;63008;53.112;8.896;2022-12-07T00:40:27;101310.75;;;4.46;92.69
5126;BME280;63008;53.112;8.896;2022-12-07T00:42:28;101301.50;;;4.52;92.38
5126;BME280;63008;53.112;8.896;2022-12-07T00:44:29;101299.34;;;4.49;92.42
5126;BME280;63008;53.112;8.896;2022-12-07T00:46:30;101301.72;;;4.56;92.06
5126;BME280;63008;53.112;8.896;2022-12-07T00:48:31;101299.56;;;4.53;92.52
5126;BME280;63008;53.112;8.896;2022-12-07T00:50:32;101295.50;;;4.55;92.34
5126;BME280;63008;53.112;8.896;2022-12-07T00:52:33;101295.75;;;4.54;92.30
5126;BME280;63008;53.112;8.896;2022-12-07T00:54:34;101295.78;;;4.49;92.08
5126;BME280;63008;53.112;8.896;2022-12-07T00:56:35;101296.06;;;4.52;91.67
5126;BME280;63008;53.112;8.896;2022-12-07T00:58:36;101296.59;;;4.54;91.22
5126;BME280;63008;53.112;8.896;2022-12-07T01:00:39;101294.97;;;4.48;91.52
5126;BME280;63008;53.112;8.896;2022-12-07T01:02:40;101300.16;;;4.45;91.44
5126;BME280;63008;53.112;8.896;2022-12-07T01:04:41;101297.97;;;4.47;91.26
5126;BME280;63008;53.112;8.896;2022-12-07T01:06:42;101293.91;;;4.44;91.00
5126;BME280;63008;53.112;8.896;2022-12-07T01:08:43;101295.31;;;4.42;90.92
5126;BME280;63008;53.112;8.896;2022-12-07T01:10:44;101299.34;;;4.44;90.68
5126;BME280;63008;53.112;8.896;2022-12-07T01:12:45;101302.88;;;4.45;90.77
5126;BME280;63008;53.112;8.896;2022-12-07T01:14:46;101300.41;;;4.48;90.11
5126;BME280;63008;53.112;8.896;2022-12-07T01:16:47;101296.88;;;4.48;90.13
5126;BME280;63008;53.112;8.896;2022-12-07T01:18:50;101294.44;;;4.46;90.04
5126;BME280;63008;53.112;8.896;2022-12-07T01:21:06;101287.94;;;4.42;89.95
5126;BME280;63008;53.112;8.896;2022-12-07T01:23:07;101297.47;;;4.40;90.19
5126;BME280;63008;53.112;8.896;2022-12-07T01:25:10;101299.94;;;4.36;90.21
5126;BME280;63008;53.112;8.896;2022-12-07T01:27:12;101303.19;;;4.38;90.07
5126;BME280;63008;53.112;8.896;2022-12-07T01:29:13;101296.13;;;4.37;90.19
5126;BME280;63008;53.112;8.896;2022-12-07T01:31:17;101291.50;;;4.38;90.45
5126;BME280;63008;53.112;8.896;2022-12-07T01:33:18;101283.59;;;4.41;89.99
5126;BME280;63008;53.112;8.896;2022-12-07T01:35:19;101289.31;;;4.40;90.28
5126;BME280;63008;53.112;8.896;2022-12-07T01:37:23;101291.19;;;4.44;89.54
5126;BME280;63008;53.112;8.896;2022-12-07T01:39:24;101282.25;;;4.44;89.06
5126;BME280;63008;53.112;8.896;2022-12-07T01:41:28;101283.34;;;4.43;88.90
5126;BME280;63008;53.112;8.896;2022-12-07T01:43:31;101277.09;;;4.42;87.94
5126;BME280;63008;53.112;8.896;2022-12-07T01:45:42;101280.38;;;4.39;88.04
5126;BME280;63008;53.112;8.896;2022-12-07T01:48:01;101280.38;;;4.39;88.12
5126;BME280;63008;53.112;8.896;2022-12-07T01:50:02;101275.72;;;4.40;87.94
5126;BME280;63008;53.112;8.896;2022-12-07T01:52:16;101279.53;;;4.39;88.23
5126;BME280;63008;53.112;8.896;2022-12-07T01:54:20;101280.63;;;4.43;87.90
5126;BME280;63008;53.112;8.896;2022-12-07T01:56:24;101278.69;;;4.43;87.82
5126;BME280;63008;53.112;8.896;2022-12-07T01:58:27;101269.50;;;4.39;88.25
5126;BME280;63008;53.112;8.896;2022-12-07T02:00:28;101273.06;;;4.30;88.74
5126;BME280;63008;53.112;8.896;2022-12-07T02:02:33;101268.44;;;4.30;87.99
5126;BME280;63008;53.112;8.896;2022-12-07T02:04:35;101265.19;;;4.33;87.43
5126;BME280;63008;53.112;8.896;2022-12-07T02:06:38;101265.72;;;4.30;87.56
5126;BME280;63008;53.112;8.896;2022-12-07T02:08:39;101269.28;;;4.31;87.46
5126;BME280;63008;53.112;8.896;2022-12-07T02:10:40;101270.94;;;4.27;87.61
5126;BME280;63008;53.112;8.896;2022-12-07T02:12:42;101264.69;;;4.21;87.83
5126;BME280;63008;53.112;8.896;2022-12-07T02:14:45;101259.84;;;4.13;88.36
5126;BME280;63008;53.112;8.896;2022-12-07T02:17:11;101253.59;;;4.13;88.36
5126;BME280;63008;53.112;8.896;2022-12-07T02:19:45;101260.94;;;4.12;88.56
5126;BME280;63008;53.112;8.896;2022-12-07T02:22:11;101259.34;;;4.06;88.88
5126;BME280;63008;53.112;8.896;2022-12-07T02:24:48;101262.34;;;4.00;89.29
5126;BME280;63008;53.112;8.896;2022-12-07T02:27:15;101265.59;;;4.02;89.63
5126;BME280;63008;53.112;8.896;2022-12-07T02:29:25;101257.75;;;4.00;89.55
5126;BME280;63008;53.112;8.896;2022-12-07T02:31:28;101264.25;;;3.99;89.50
5126;BME280;63008;53.112;8.896;2022-12-07T02:33:37;101265.59;;;4.02;89.44
5126;BME280;63008;53.112;8.896;2022-12-07T02:35:46;101262.38;;;3.95;89.82
5126;BME280;63008;53.112;8.896;2022-12-07T02:40:20;101248.53;;;3.96;89.59
5126;BME280;63008;53.112;8.896;2022-12-07T02:42:28;101250.97;;;3.98;89.63
5126;BME280;63008;53.112;8.896;2022-12-07T02:44:32;101252.88;;;3.97;89.54
5126;BME280;63008;53.112;8.896;2022-12-07T02:46:36;101254.19;;;4.00;89.33
5126;BME280;63008;53.112;8.896;2022-12-07T02:48:39;101254.75;;;3.97;89.39
5126;BME280;63008;53.112;8.896;2022-12-07T02:50:48;101257.22;;;3.93;89.51
5126;BME280;63008;53.112;8.896;2022-12-07T02:52:50;101254.50;;;3.93;89.41
5126;BME280;63008;53.112;8.896;2022-12-07T02:54:50;101253.69;;;3.93;89.49
5126;BME280;63008;53.112;8.896;2022-12-07T02:57:01;101268.94;;;3.89;89.63
5126;BME280;63008;53.112;8.896;2022-12-07T02:59:17;101268.94;;;3.89;89.50
5126;BME280;63008;53.112;8.896;2022-12-07T03:01:52;101263.47;;;3.94;89.59
5126;BME280;63008;53.112;8.896;2022-12-07T03:04:08;101268.59;;;3.95;89.34
5126;BME280;63008;53.112;8.896;2022-12-07T03:06:20;101270.50;;;4.00;89.33
5126;BME280;63008;53.112;8.896;2022-12-07T03:10:50;101270.50;;;4.00;89.19
5126;BME280;63008;53.112;8.896;2022-12-07T03:13:01;101262.88;;;4.07;88.49
5126;BME280;63008;53.112;8.896;2022-12-07T03:15:12;101261.19;;;4.16;87.89
5126;BME280;63008;53.112;8.896;2022-12-07T03:17:25;101264.47;;;4.13;88.26
5126;BME280;63008;53.112;8.896;2022-12-07T03:19:27;101264.47;;;4.13;88.36
5126;BME280;63008;53.112;8.896;2022-12-07T03:21:39;101258.50;;;4.11;88.33
5126;BME280;63008;53.112;8.896;2022-12-07T03:23:44;101253.59;;;4.13;88.25
5126;BME280;63008;53.112;8.896;2022-12-07T03:25:50;101251.97;;;4.12;88.10
5126;BME280;63008;53.112;8.896;2022-12-07T03:27:54;101259.03;;;4.13;87.94
5126;BME280;63008;53.112;8.896;2022-12-07T03:30:01;101247.66;;;4.11;88.04
5126;BME280;63008;53.112;8.896;2022-12-07T03:32:53;101245.50;;;4.08;88.09
5126;BME280;63008;53.112;8.896;2022-12-07T03:34:56;101237.06;;;4.09;88.08
5126;BME280;63008;53.112;8.896;2022-12-07T03:37:04;101243.56;;;4.08;88.29
5126;BME280;63008;53.112;8.896;2022-12-07T03:41:39;101247.38;;;4.07;88.86
5126;BME280;63008;53.112;8.896;2022-12-07T03:43:41;101237.34;;;4.03;88.97
5126;BME280;63008;53.112;8.896;2022-12-07T03:45:44;101250.94;;;4.03;89.10
5126;BME280;63008;53.112;8.896;2022-12-07T03:48:02;101244.97;;;4.06;88.73
5126;BME280;63008;53.112;8.896;2022-12-07T03:50:12;101251.16;;;4.11;88.59
5126;BME280;63008;53.112;8.896;2022-12-07T03:52:25;101248.44;;;4.16;88.49
5126;BME280;63008;53.112;8.896;2022-12-07T03:54:51;101253.56;;;4.23;87.94
5126;BME280;63008;53.112;8.896;2022-12-07T03:56:53;101257.91;;;4.19;88.34
5126;BME280;63008;53.112;8.896;2022-12-07T03:58:55;101246.22;;;4.23;88.16
5126;BME280;63008;53.112;8.896;2022-12-07T04:00:56;101248.38;;;4.26;87.82
5126;BME280;63008;53.112;8.896;2022-12-07T04:02:57;101242.38;;;4.34;87.61
5126;BME280;63008;53.112;8.896;2022-12-07T04:04:58;101238.50;;;4.40;87.58
5126;BME280;63008;53.112;8.896;2022-12-07T04:07:00;101244.75;;;4.46;87.54
5126;BME280;63008;53.112;8.896;2022-12-07T04:09:01;101244.69;;;4.51;87.42
5126;BME280;63008;53.112;8.896;2022-12-07T04:11:02;101235.44;;;4.52;87.56
5126;BME280;63008;53.112;8.896;2022-12-07T04:13:03;101242.53;;;4.48;87.51
5126;BME280;63008;53.112;8.896;2022-12-07T04:15:05;101244.75;;;4.46;87.75
5126;BME280;63008;53.112;8.896;2022-12-07T04:17:06;101243.69;;;4.37;87.98
5126;BME280;63008;53.112;8.896;2022-12-07T04:19:07;101244.78;;;4.36;88.18
5126;BME280;63008;53.112;8.896;2022-12-07T04:21:08;101246.44;;;4.32;88.40
5126;BME280;63008;53.112;8.896;2022-12-07T04:23:09;101244.59;;;4.22;88.58
5126;BME280;63008;53.112;8.896;2022-12-07T04:25:10;101242.72;;;4.18;89.11
5126;BME280;63008;53.112;8.896;2022-12-07T04:27:11;101244.63;;;4.17;88.72
5126;BME280;63008;53.112;8.896;2022-12-07T04:29:12;101245.19;;;4.14;88.80
5126;BME280;63008;53.112;8.896;2022-12-07T04:31:13;101247.13;;;4.09;89.08
5126;BME280;63008;53.112;8.896;2022-12-07T04:33:14;101250.94;;;4.08;89.29
5126;BME280;63008;53.112;8.896;2022-12-07T04:35:16;101248.75;;;4.10;89.10
5126;BME280;63008;53.112;8.896;2022-12-07T04:37:16;101237.88;;;4.10;89.39
5126;BME280;63008;53.112;8.896;2022-12-07T04:39:27;101247.13;;;4.09;89.58
5126;BME280;63008;53.112;8.896;2022-12-07T04:41:28;101248.75;;;4.10;89.58
5126;BME280;63008;53.112;8.896;2022-12-07T04:43:29;101238.69;;;4.10;89.64
5126;BME280;63008;53.112;8.896;2022-12-07T04:45:30;101241.91;;;4.12;89.41
5126;BME280;63008;53.112;8.896;2022-12-07T04:47:31;101236.47;;;4.17;89.23
5126;BME280;63008;53.112;8.896;2022-12-07T04:49:32;101246.22;;;4.23;88.96
5126;BME280;63008;53.112;8.896;2022-12-07T04:51:33;101243.47;;;4.28;88.34
5126;BME280;63008;53.112;8.896;2022-12-07T04:53:34;101241.06;;;4.22;88.59
5126;BME280;63008;53.112;8.896;2022-12-07T04:55:35;101235.63;;;4.22;88.54
5126;BME280;63008;53.112;8.896;2022-12-07T04:57:36;101238.59;;;4.25;88.36
5126;BME280;63008;53.112;8.896;2022-12-07T04:59:37;101248.09;;;4.28;88.13
5126;BME280;63008;53.112;8.896;2022-12-07T05:01:38;101245.97;;;4.25;88.19
5126;BME280;63008;53.112;8.896;2022-12-07T05:03:41;101245.69;;;4.21;88.42
5126;BME280;63008;53.112;8.896;2022-12-07T05:05:42;101236.44;;;4.22;88.40
5126;BME280;63008;53.112;8.896;2022-12-07T05:07:43;101241.06;;;4.22;88.04
5126;BME280;63008;53.112;8.896;2022-12-07T05:09:44;101231.59;;;4.19;88.30
5126;BME280;63008;53.112;8.896;2022-12-07T05:11:45;101227.81;;;4.15;88.33
5126;BME280;63008;53.112;8.896;2022-12-07T05:13:46;101216.69;;;4.12;88.51
5126;BME280;63008;53.112;8.896;2022-12-07T05:15:48;101234.88;;;4.16;88.06
5126;BME280;63008;53.112;8.896;2022-12-07T05:17:49;101227.81;;;4.15;88.15
5126;BME280;63008;53.112;8.896;2022-12-07T05:19:50;101231.91;;;4.08;88.53
5126;BME280;63008;53.112;8.896;2022-12-07T05:21:51;101239.25;;;4.07;88.71
5126;BME280;63008;53.112;8.896;2022-12-07T05:23:51;101239.53;;;4.01;88.86
5126;BME280;63008;53.112;8.896;2022-12-07T05:25:52;101241.72;;;3.99;89.05
5126;BME280;63008;53.112;8.896;2022-12-07T05:27:55;101240.66;;;3.95;89.12
5126;BME280;63008;53.112;8.896;2022-12-07T05:29:56;101242.31;;;3.91;89.40
5126;BME280;63008;53.112;8.896;2022-12-07T05:31:57;101235.78;;;3.87;89.18
5126;BME280;63008;53.112;8.896;2022-12-07T05:33:58;101245.84;;;3.86;89.47
5126;BME280;63008;53.112;8.896;2022-12-07T05:35:59;101242.84;;;3.93;89.36
5126;BME280;63008;53.112;8.896;2022-12-07T05:38:05;101239.34;;;3.87;89.36
5126;BME280;63008;53.112;8.896;2022-12-07T05:40:07;101239.06;;;3.84;89.23
5126;BME280;63008;53.112;8.896;2022-12-07T05:42:10;101225.78;;;3.82;89.59
5126;BME280;63008;53.112;8.896;2022-12-07T05:44:14;101229.00;;;3.89;89.25
5126;BME280;63008;53.112;8.896;2022-12-07T05:46:15;101236.06;;;3.90;89.17
5126;BME280;63008;53.112;8.896;2022-12-07T05:48:16;101231.44;;;3.86;89.14
5126;BME280;63008;53.112;8.896;2022-12-07T05:50:17;101230.13;;;3.83;89.17
5126;BME280;63008;53.112;8.896;2022-12-07T05:52:18;101222.50;;;3.85;89.08
5126;BME280;63008;53.112;8.896;2022-12-07T05:54:19;101227.13;;;3.85;88.80
5126;BME280;63008;53.112;8.896;2022-12-07T05:56:20;101240.44;;;3.81;88.74
5126;BME280;63008;53.112;8.896;2022-12-07T05:58:21;101235.03;;;3.71;89.26
5126;BME280;63008;53.112;8.896;2022-12-07T06:00:40;101245.34;;;3.74;89.32
5126;BME280;63008;53.112;8.896;2022-12-07T06:02:41;101234.75;;;3.78;89.37
5126;BME280;63008;53.112;8.896;2022-12-07T06:04:45;101243.72;;;3.73;88.98
5126;BME280;63008;53.112;8.896;2022-12-07T06:06:46;101238.81;;;3.75;88.98
5126;BME280;63008;53.112;8.896;2022-12-07T06:08:47;101240.97;;;3.78;88.93
5126;BME280;63008;53.112;8.896;2022-12-07T06:10:48;101241.28;;;3.77;89.02
5126;BME280;63008;53.112;8.896;2022-12-07T06:13:09;101242.06;;;3.82;88.78
5126;BME280;63008;53.112;8.896;2022-12-07T06:15:10;101256.19;;;3.84;89.00
5126;BME280;63008;53.112;8.896;2022-12-07T06:17:14;101246.91;;;3.90;88.85
5126;BME280;63008;53.112;8.896;2022-12-07T06:19:15;101247.47;;;3.87;89.11
5126;BME280;63008;53.112;8.896;2022-12-07T06:21:17;101254.53;;;3.88;88.61
5126;BME280;63008;53.112;8.896;2022-12-07T06:23:18;101261.31;;;3.86;89.17
5126;BME280;63008;53.112;8.896;2022-12-07T06:25:19;101257.25;;;3.83;89.78
5126;BME280;63008;53.112;8.896;2022-12-07T06:27:20;101257.00;;;3.80;89.80
5126;BME280;63008;53.112;8.896;2022-12-07T06:29:21;101259.44;;;3.81;89.57
5126;BME280;63008;53.112;8.896;2022-12-07T06:31:22;101252.94;;;3.77;89.72
5126;BME280;63008;53.112;8.896;2022-12-07T06:33:23;101255.94;;;3.76;89.84
5126;BME280;63008;53.112;8.896;2022-12-07T06:35:24;101260.00;;;3.73;90.15
5126;BME280;63008;53.112;8.896;2022-12-07T06:37:28;101252.97;;;3.67;90.65
5126;BME280;63008;53.112;8.896;2022-12-07T06:39:29;101249.44;;;3.67;90.66
5126;BME280;63008;53.112;8.896;2022-12-07T06:41:31;101245.63;;;3.68;90.64
5126;BME280;63008;53.112;8.896;2022-12-07T06:43:32;101241.31;;;3.72;90.78
5126;BME280;63008;53.112;8.896;2022-12-07T06:45:33;101243.78;;;3.63;90.79
5126;BME280;63008;53.112;8.896;2022-12-07T06:47:34;101244.28;;;3.70;90.72
5126;BME280;63008;53.112;8.896;2022-12-07T06:49:38;101244.00;;;3.72;90.39
5126;BME280;63008;53.112;8.896;2022-12-07T06:51:39;101240.75;;;3.70;90.21
5126;BME280;63008;53.112;8.896;2022-12-07T06:53:43;101239.91;;;3.74;89.85
5126;BME280;63008;53.112;8.896;2022-12-07T06:55:44;101244.53;;;3.69;89.49
5126;BME280;63008;53.112;8.896;2022-12-07T06:57:45;101241.81;;;3.69;89.74
5126;BME280;63008;53.112;8.896;2022-12-07T06:59:46;101239.91;;;3.74;89.45
5126;BME280;63008;53.112;8.896;2022-12-07T07:01:47;101244.00;;;3.72;89.72
5126;BME280;63008;53.112;8.896;2022-12-07T07:03:48;101240.22;;;3.73;89.90
5126;BME280;63008;53.112;8.896;2022-12-07T07:05:49;101249.44;;;3.72;90.04
5126;BME280;63008;53.112;8.896;2022-12-07T07:07:50;101246.19;;;3.70;90.08
5126;BME280;63008;53.112;8.896;2022-12-07T07:09:51;101246.19;;;3.70;90.05
5126;BME280;63008;53.112;8.896;2022-12-07T07:11:52;101257.28;;;3.73;90.14
5126;BME280;63008;53.112;8.896;2022-12-07T07:13:53;101252.16;;;3.72;90.20
5126;BME280;63008;53.112;8.896;2022-12-07T07:15:54;101258.94;;;3.69;90.29
5126;BME280;63008;53.112;8.896;2022-12-07T07:17:55;101259.19;;;3.68;90.31
5126;BME280;63008;53.112;8.896;2022-12-07T07:19:56;101257.06;;;3.70;90.29
5126;BME280;63008;53.112;8.896;2022-12-07T07:21:57;101253.75;;;3.78;90.19
5126;BME280;63008;53.112;8.896;2022-12-07T07:23:58;101252.41;;;3.80;89.92
5126;BME280;63008;53.112;8.896;2022-12-07T07:25:59;101252.41;;;3.80;90.25
5126;BME280;63008;53.112;8.896;2022-12-07T07:28:00;101246.97;;;3.80;90.40
5126;BME280;63008;53.112;8.896;2022-12-07T07:30:02;101251.56;;;3.80;90.19
5126;BME280;63008;53.112;8.896;2022-12-07T07:32:04;101253.19;;;3.81;90.31
5126;BME280;63008;53.112;8.896;2022-12-07T07:34:05;101250.22;;;3.77;90.45
5126;BME280;63008;53.112;8.896;2022-12-07T07:36:06;101251.59;;;3.75;90.46
5126;BME280;63008;53.112;8.896;2022-12-07T07:38:07;101247.53;;;3.72;90.59
5126;BME280;63008;53.112;8.896;2022-12-07T07:40:09;101250.53;;;3.71;90.41
5126;BME280;63008;53.112;8.896;2022-12-07T07:42:10;101247.81;;;3.66;90.66
5126;BME280;63008;53.112;8.896;2022-12-07T07:44:11;101245.38;;;3.64;90.61
5126;BME280;63008;53.112;8.896;2022-12-07T07:46:12;101251.63;;;3.65;90.47
5126;BME280;63008;53.112;8.896;2022-12-07T07:48:13;101254.09;;;3.61;90.65
5126;BME280;63008;53.112;8.896;2022-12-07T07:50:14;101250.81;;;3.59;90.69
5126;BME280;63008;53.112;8.896;2022-12-07T07:52:17;101248.38;;;3.58;90.63
5126;BME280;63008;53.112;8.896;2022-12-07T07:54:18;101251.63;;;3.60;90.55
5126;BME280;63008;53.112;8.896;2022-12-07T07:56:19;101260.06;;;3.63;90.67
5126;BME280;63008;53.112;8.896;2022-12-07T07:58:21;101258.16;;;3.59;90.69
5126;BME280;63008;53.112;8.896;2022-12-07T08:00:22;101257.09;;;3.55;90.99
5126;BME280;63008;53.112;8.896;2022-12-07T08:02:23;101261.41;;;3.56;90.99
5126;BME280;63008;53.112;8.896;2022-12-07T08:04:24;101260.56;;;3.60;90.82
5126;BME280;63008;53.112;8.896;2022-12-07T08:06:25;101260.06;;;3.63;90.41
5126;BME280;63008;53.112;8.896;2022-12-07T08:08:26;101263.28;;;3.60;90.49
5126;BME280;63008;53.112;8.896;2022-12-07T08:10:27;101264.13;;;3.61;90.60
5126;BME280;63008;53.112;8.896;2022-12-07T08:12:28;101258.94;;;3.59;90.71
5126;BME280;63008;53.112;8.896;2022-12-07T08:14:29;101262.22;;;3.61;90.51
5126;BME280;63008;53.112;8.896;2022-12-07T08:16:30;101255.16;;;3.60;90.33
5126;BME280;63008;53.112;8.896;2022-12-07T08:18:35;101264.38;;;3.64;90.53
5126;BME280;63008;53.112;8.896;2022-12-07T08:20:37;101263.53;;;3.69;89.94
5126;BME280;63008;53.112;8.896;2022-12-07T08:22:38;101263.53;;;3.69;90.01
5126;BME280;63008;53.112;8.896;2022-12-07T08:24:39;101262.75;;;3.68;90.10
5126;BME280;63008;53.112;8.896;2022-12-07T08:26:40;101265.44;;;3.68;90.03
5126;BME280;63008;53.112;8.896;2022-12-07T08:28:42;101253.47;;;3.74;89.55
5126;BME280;63008;53.112;8.896;2022-12-07T08:30:43;101271.41;;;3.80;89.19
5126;BME280;63008;53.112;8.896;2022-12-07T08:32:45;101265.13;;;3.85;88.49
5126;BME280;63008;53.112;8.896;2022-12-07T08:34:47;101271.63;;;3.84;88.72
5126;BME280;63008;53.112;8.896;2022-12-07T08:36:48;101274.66;;;3.82;88.59
5126;BME280;63008;53.112;8.896;2022-12-07T08:38:49;101273.28;;;3.80;88.49
5126;BME280;63008;53.112;8.896;2022-12-07T08:40:54;101273.84;;;3.77;88.82
5126;BME280;63008;53.112;8.896;2022-12-07T08:42:55;101271.41;;;3.80;88.82
5126;BME280;63008;53.112;8.896;2022-12-07T08:44:57;101277.34;;;3.87;89.33
5126;BME280;63008;53.112;8.896;2022-12-07T08:47:02;101273.53;;;3.88;88.63
5126;BME280;63008;53.112;8.896;2022-12-07T08:49:09;101267.53;;;3.91;88.56
5126;BME280;63008;53.112;8.896;2022-12-07T08:51:12;101267.28;;;3.93;88.63
5126;BME280;63008;53.112;8.896;2022-12-07T08:53:13;101274.06;;;3.90;88.32
5126;BME280;63008;53.112;8.896;2022-12-07T08:55:14;101283.00;;;3.96;88.24
5126;BME280;63008;53.112;8.896;2022-12-07T08:57:15;101281.41;;;3.90;88.45
5126;BME280;63008;53.112;8.896;2022-12-07T08:59:17;101287.63;;;3.90;88.51
5126;BME280;63008;53.112;8.896;2022-12-07T09:01:19;101287.63;;;3.90;88.68
5126;BME280;63008;53.112;8.896;2022-12-07T09:03:20;101294.97;;;3.90;89.07
5126;BME280;63008;53.112;8.896;2022-12-07T09:05:21;101291.13;;;4.01;88.77
5126;BME280;63008;53.112;8.896;2022-12-07T09:07:22;101286.22;;;4.03;88.24
5126;BME280;63008;53.112;8.896;2022-12-07T09:09:24;101284.56;;;4.12;88.25
5126;BME280;63008;53.112;8.896;2022-12-07T09:11:25;101292.13;;;4.20;87.87
5126;BME280;63008;53.112;8.896;2022-12-07T09:13:26;101286.16;;;4.18;87.91
5126;BME280;63008;53.112;8.896;2022-12-07T09:15:29;101281.28;;;4.15;88.01
5126;BME280;63008;53.112;8.896;2022-12-07T09:17:32;101280.16;;;4.21;87.69
5126;BME280;63008;53.112;8.896;2022-12-07T09:19:34;101275.84;;;4.20;88.09
5126;BME280;63008;53.112;8.896;2022-12-07T09:21:34;101281.25;;;4.20;87.64
5126;BME280;63008;53.112;8.896;2022-12-07T09:23:35;101275.31;;;4.23;87.80
5126;BME280;63008;53.112;8.896;2022-12-07T09:25:36;101270.94;;;4.27;86.74
5126;BME280;63008;53.112;8.896;2022-12-07T09:27:37;101278.50;;;4.30;87.25
5126;BME280;63008;53.112;8.896;2022-12-07T09:29:38;101274.16;;;4.29;86.72
5126;BME280;63008;53.112;8.896;2022-12-07T09:31:40;101277.44;;;4.26;87.00
5126;BME280;63008;53.112;8.896;2022-12-07T09:33:41;101274.69;;;4.31;86.99
5126;BME280;63008;53.112;8.896;2022-12-07T09:35:49;101283.13;;;4.29;86.86
5126;BME280;63008;53.112;8.896;2022-12-07T09:37:50;101283.38;;;4.33;86.91
5126;BME280;63008;53.112;8.896;2022-12-07T09:39:51;101279.06;;;4.22;86.88
5126;BME280;63008;53.112;8.896;2022-12-07T09:41:52;101282.06;;;4.25;86.83
5126;BME280;63008;53.112;8.896;2022-12-07T09:44:00;101278.81;;;4.23;86.82
5126;BME280;63008;53.112;8.896;2022-12-07T09:46:04;101279.38;;;4.20;86.59
5126;BME280;63008;53.112;8.896;2022-12-07T09:48:08;101270.09;;;4.26;86.81
5126;BME280;63008;53.112;8.896;2022-12-07T09:50:18;101273.06;;;4.30;86.81
5126;BME280;63008;53.112;8.896;2022-12-07T09:52:27;101274.66;;;4.41;86.75
5126;BME280;63008;53.112;8.896;2022-12-07T09:54:29;101271.34;;;4.49;86.54
5126;BME280;63008;53.112;8.896;2022-12-07T09:56:31;101272.94;;;4.55;85.86
5126;BME280;63008;53.112;8.896;2022-12-07T09:58:33;101274.00;;;4.59;85.87
5126;BME280;63008;53.112;8.896;2022-12-07T10:00:34;101274.53;;;4.61;86.19
5126;BME280;63008;53.112;8.896;2022-12-07T10:02:38;101262.84;;;4.60;85.73
5126;BME280;63008;53.112;8.896;2022-12-07T10:04:43;101267.50;;;4.55;85.32
5126;BME280;63008;53.112;8.896;2022-12-07T10:06:45;101261.50;;;4.58;85.62
5126;BME280;63008;53.112;8.896;2022-12-07T10:08:47;101258.25;;;4.56;85.66
5126;BME280;63008;53.112;8.896;2022-12-07T10:10:52;101268.75;;;4.72;85.47
5126;BME280;63008;53.112;8.896;2022-12-07T10:12:54;101266.97;;;4.91;85.41
5126;BME280;63008;53.112;8.896;2022-12-07T10:15:01;101267.63;;;5.12;84.91
5126;BME280;63008;53.112;8.896;2022-12-07T10:19:30;101281.63;;;5.29;83.09
5126;BME280;63008;53.112;8.896;2022-12-07T10:21:32;101271.34;;;5.21;82.89
5126;BME280;63008;53.112;8.896;2022-12-07T10:23:34;101277.84;;;5.25;83.19
5126;BME280;63008;53.112;8.896;2022-12-07T10:25:36;101274.06;;;5.21;83.39
5126;BME280;63008;53.112;8.896;2022-12-07T10:27:39;101267.59;;;5.17;82.91
5126;BME280;63008;53.112;8.896;2022-12-07T10:29:47;101272.78;;;5.13;83.61
5126;BME280;63008;53.112;8.896;2022-12-07T10:31:54;101266.84;;;5.06;83.49
5126;BME280;63008;53.112;8.896;2022-12-07T10:34:00;101272.88;;;4.98;83.36
5126;BME280;63008;53.112;8.896;2022-12-07T10:36:24;101266.66;;;4.93;84.37
5126;BME280;63008;53.112;8.896;2022-12-07T10:38:26;101271.84;;;4.94;83.91
5126;BME280;63008;53.112;8.896;2022-12-07T10:40:33;101265.06;;;4.92;84.38
5126;BME280;63008;53.112;8.896;2022-12-07T10:42:34;101265.06;;;4.92;83.46
5126;BME280;63008;53.112;8.896;2022-12-07T10:44:35;101245.47;;;4.95;83.18
5126;BME280;63008;53.112;8.896;2022-12-07T10:46:59;101253.72;;;5.13;82.82
5126;BME280;63008;53.112;8.896;2022-12-07T10:49:39;101248.53;;;5.17;82.97
5126;BME280;63008;53.112;8.896;2022-12-07T10:51:53;101239.09;;;5.37;82.45
5126;BME280;63008;53.112;8.896;2022-12-07T11:03:45;101233.84;;;5.69;80.49
5126;BME280;63008;53.112;8.896;2022-12-07T11:06:14;101234.44;;;5.66;80.09
5126;BME280;63008;53.112;8.896;2022-12-07T11:15:22;101243.56;;;5.75;80.33
5126;BME280;63008;53.112;8.896;2022-12-07T11:17:53;101236.09;;;5.62;79.23
5126;BME280;63008;53.112;8.896;2022-12-07T11:20:03;101228.56;;;5.54;80.05
5126;BME280;63008;53.112;8.896;2022-12-07T11:22:13;101217.09;;;5.57;80.45
5126;BME280;63008;53.112;8.896;2022-12-07T11:24:20;101215.22;;;5.53;80.06
5126;BME280;63008;53.112;8.896;2022-12-07T11:26:45;101203.06;;;5.45;80.44
5126;BME280;63008;53.112;8.896;2022-12-07T11:31:15;101191.66;;;5.20;82.06
5126;BME280;63008;53.112;8.896;2022-12-07T11:33:29;101187.09;;;5.16;82.62
5126;BME280;63008;53.112;8.896;2022-12-07T11:35:45;101198.94;;;5.25;81.79